Pagrindinis puslapis
METAR-TAF:

METAR-TAF

Oro uostai :

Jasai, Rumunija

platuma: 47-10N, ilguma: 027-38E, Aukštis: 102 m

Dabartinis oras

Ataskaita buvo paskelbta 29 minutes, ne 17:30 UTC
Vėjas 6 kt iš Rytų
Temperatūra 18°C
Drėgmė 42%
Slėgis 1021 hPa
Matomumas 10 km arba daugiau
nėra debesų žemiau 1500 m ir nėra kamuolinių lietaus debesų

METAR: LRIA 151730Z 10006KT CAVOK 18/05 Q1021

Laikas: 20:59 (17:59 UTC)

Prognozė

Ataskaita buvo paskelbta 59 minutes, ne 17:00 UTC
Prognozė galioja nuo 15 metu 18 UTC su 16 metu 03 UTC
Vėjas 6 kt iš Rytų
Matomumas 10 km arba daugiau
nėra debesų žemiau 1500 m ir nėra kamuolinių lietaus debesų

TAF: LRIA 151700Z 1518/1603 10006KT CAVOK

Orai ataskaitas ir orų prognozės (METAR, TAF).

turimą stotys yra geltonos ir raudonos taškus žemėlapyje.

Perkelti pele per norėdami pamatyti stoties vardą.

Tada spustelėkite, norėdami matyti oro stebėjimo ir prognozės.

Norėdami pakeisti žemėlapį: spustelėkite ant žalios mygtukų su juodo kryžiaus žemyn,; žalią mygtuką su brūkšneliu, jei norite nutolinti; arba žalių rodyklių gretimoms žemėlapius.


METAR-TAF: